Geraldton, Australia
Current Conditions -  °F | °C
As of 4:00 AM on Tuesday 25 Nov 2014 (Local Time) from YGEL Reporting Station
Clear Clear  
Wind Chill: 59°   Ceiling: Unl
Heat Index: 59°   Visibility: 6mi
Dew Point: 46°   Wind: 10mph
Humidity: 63%   Direction: 150°SSE
Pressure: 29.88"   Gusts: NA
Location:  28.77°S, 114.61°E
Report Text: YGEL 242000Z AUTO 15009KT 9999 // NCD 15/08 Q1012
Loading
Personal Weather Stations






























Interactive Weather Map New forecast layout! Learn more

10-Day Weather Forecast

Advertisements
Track Severe Weather on mobile